Wayne City, Illinois
Current Conditions -  °F | °C
As of 11:55 PM on Friday 19 Dec 2014 (Local Time) from KFWC Reporting Station
Overcast Overcast  
Wind Chill: 27°   Ceiling: 6500
Heat Index: 32°   Visibility: 10mi
Dew Point: 28°   Wind: 5mph
Humidity: 85%   Direction: 110°ESE
Pressure: 30.28"   Gusts: NA
Location:  38.35°N, 88.59°W
Report Text: KFWC 200555Z AUTO 11004KT 10SM OVC065 00/M02 A3028 RMK AO1 T00001023 10007 20000 400261036
Loading
Personal Weather Stations






























Interactive Weather Map New forecast layout! Learn more

10-Day Weather Forecast

Advertisements
Track Severe Weather on mobile